Terminal Aerodrome Forecast
Issued by NWS Central Illinois

Home | Current Version | Previous Version | Text Only | Print | Product List | Glossary On
Versions: 1 2 3 4 5 6 7 8 9 10 11 12
423
FTUS43 KILX 260535
TAFSPI
TAF
KSPI 260535Z 2606/2706 17012KT P6SM SCT080 BKN130
     FM261100 18011KT P6SM VCTS OVC060CB
     FM261400 20012KT P6SM VCSH OVC030
     FM261800 20011KT P6SM SHRA VCTS OVC030CB
     FM262100 19011KT 3SM +SHRA VCTS OVC010CB
     FM270000 24007KT 3SM SHRA BR OVC010
     FM270300 31007KT 6SM -SHRA OVC010=

USA.gov is the U.S. government's official web portal to all federal, state and local government web resources and services.